Time;durP1;ratioP1;P1;durP2;ratioP2;P2;SDS_P1;SDS_P2;PMS_P1;PMS_P2;Temp;Humidity;BMP_temperature;BMP_pressure;BME280_temperature;BME280_humidity;BME280_pressure;Samples;Min_cycle;Max_cycle;Signal;HPM_P1;HPM_P2
2021/04/20 00:00:18;;;;;;;36.92;18.45;;;;;;;4.28;88.70;101788.38;5106155;28;20073;-62
2021/04/20 00:02:43;;;;;;;37.22;19.92;;;;;;;4.24;89.36;101789.06;5103908;28;20519;-62
2021/04/20 00:05:13;;;;;;;51.10;26.92;;;;;;;4.16;91.35;101789.63;5104848;28;20051;-62
2021/04/20 00:07:39;;;;;;;40.65;21.85;;;;;;;4.07;91.49;101797.06;5104514;28;20027;-62
2021/04/20 00:10:09;;;;;;;39.50;21.02;;;;;;;4.02;91.92;101793.34;5104149;28;20012;-62
2021/04/20 00:12:35;;;;;;;39.53;21.08;;;;;;;3.98;91.86;101783.56;5105083;28;20474;-62
2021/04/20 00:15:01;;;;;;;39.50;21.38;;;;;;;3.95;90.96;101780.81;5103655;28;20020;-62
2021/04/20 00:17:26;;;;;;;36.60;19.23;;;;;;;3.92;89.93;101793.75;5105964;28;20456;-62
2021/04/20 00:19:52;;;;;;;37.63;21.30;;;;;;;3.92;90.40;101783.28;5102982;28;20028;-62
2021/04/20 00:22:17;;;;;;;43.33;23.27;;;;;;;3.94;91.16;101782.50;5105731;28;20484;-62
2021/04/20 00:24:42;;;;;;;49.08;26.73;;;;;;;4.00;95.22;101781.91;5102242;28;20036;-62
2021/04/20 00:27:08;;;;;;;52.22;29.33;;;;;;;4.01;94.43;101775.84;5104393;28;20031;-62
2021/04/20 00:29:33;;;;;;;58.92;31.58;;;;;;;4.03;94.39;101776.81;5104981;28;20550;-62
2021/04/20 00:31:58;;;;;;;45.03;26.05;;;;;;;3.99;92.50;101780.09;5102972;28;20099;-62
2021/04/20 00:34:23;;;;;;;42.40;24.08;;;;;;;3.94;91.61;101777.28;5105995;28;20027;-62
2021/04/20 00:36:49;;;;;;;54.08;29.38;;;;;;;3.93;92.90;101774.59;5102581;28;20071;-62
2021/04/20 00:39:14;;;;;;;51.67;28.38;;;;;;;3.88;93.66;101777.00;5105168;28;20032;-62
2021/04/20 00:41:39;;;;;;;52.95;29.75;;;;;;;3.87;94.11;101779.53;5104265;28;20103;-62
2021/04/20 00:44:05;;;;;;;50.45;27.67;;;;;;;3.87;94.01;101771.69;5103760;28;20417;-62
2021/04/20 00:46:30;;;;;;;51.08;28.70;;;;;;;3.84;93.02;101775.97;5105139;28;20439;-62
2021/04/20 00:48:56;;;;;;;52.97;28.88;;;;;;;3.79;93.84;101772.25;5102288;28;20106;-62
2021/04/20 00:51:22;;;;;;;47.63;25.80;;;;;;;3.73;93.75;101776.28;5105358;28;20475;-62
2021/04/20 00:53:47;;;;;;;47.70;26.40;;;;;;;3.72;93.68;101780.63;5102965;28;20055;-62
2021/04/20 00:56:17;;;;;;;46.60;25.00;;;;;;;3.65;91.83;101774.19;5104442;28;20035;-62
2021/04/20 00:58:43;;;;;;;54.45;29.95;;;;;;;3.66;93.19;101776.00;5102977;28;20036;-62
2021/04/20 01:01:08;;;;;;;59.28;30.75;;;;;;;3.66;94.18;101770.75;5103865;28;20024;-62
2021/04/20 01:03:34;;;;;;;53.05;27.90;;;;;;;3.62;94.90;101770.53;5104618;28;20408;-62
2021/04/20 01:06:01;;;;;;;50.50;26.83;;;;;;;3.57;95.47;101766.81;5102151;28;20038;-62
2021/04/20 01:08:27;;;;;;;55.92;29.23;;;;;;;3.52;96.54;101770.94;5105586;28;20476;-62
2021/04/20 01:10:55;;;;;;;51.88;27.90;;;;;;;3.45;96.01;101768.03;5101853;28;20031;-62
2021/04/20 01:13:28;;;;;;;46.45;24.92;;;;;;;3.42;95.28;101769.59;5105119;28;20070;-62
2021/04/20 01:15:54;;;;;;;46.28;24.73;;;;;;;3.39;94.84;101770.31;5097935;28;20459;-62
2021/04/20 01:18:20;;;;;;;51.80;26.80;;;;;;;3.39;94.26;101765.09;5105001;28;20110;-62
2021/04/20 01:20:49;;;;;;;57.63;30.88;;;;;;;3.41;94.75;101767.81;5102251;28;20571;-62
2021/04/20 01:23:48;;;;;;;51.85;27.38;;;;;;;3.44;93.82;101768.84;5103976;28;20458;-62
2021/04/20 01:26:15;;;;;;;48.40;26.40;;;;;;;3.37;92.18;101761.53;5103021;28;20036;-62
2021/04/20 01:28:42;;;;;;;50.70;26.77;;;;;;;3.34;92.34;101763.13;5103569;28;20374;-62
2021/04/20 01:31:07;;;;;;;47.70;25.60;;;;;;;3.29;92.45;101760.25;5103284;28;20032;-62
2021/04/20 01:33:33;;;;;;;49.28;25.95;;;;;;;3.27;93.03;101761.91;5103899;28;20382;-62
2021/04/20 01:35:59;;;;;;;52.72;27.20;;;;;;;3.25;93.62;101758.34;5102012;28;20074;-62
2021/04/20 01:38:24;;;;;;;51.83;27.17;;;;;;;3.24;93.44;101760.03;5104638;28;20425;-62
2021/04/20 01:40:49;;;;;;;46.80;24.00;;;;;;;3.18;91.81;101758.84;5101632;28;20039;-62
2021/04/20 01:43:15;;;;;;;48.65;25.42;;;;;;;3.13;92.78;101762.13;5103981;28;20050;-62
2021/04/20 01:45:42;;;;;;;53.67;28.05;;;;;;;3.17;93.85;101762.28;5102493;28;20030;-62
2021/04/20 01:48:10;;;;;;;54.40;28.25;;;;;;;3.12;93.87;101760.34;5103058;28;20076;-62
2021/04/20 01:50:39;;;;;;;52.67;27.65;;;;;;;3.12;93.35;101757.72;5103984;28;20061;-62
2021/04/20 01:53:04;;;;;;;51.17;26.63;;;;;;;3.09;92.71;101762.78;5102144;28;20071;-62
2021/04/20 01:55:30;;;;;;;51.03;26.88;;;;;;;3.00;91.85;101749.28;5104180;28;20099;-62
2021/04/20 01:57:56;;;;;;;47.60;25.45;;;;;;;2.95;92.34;101756.00;5101435;28;20020;-62
2021/04/20 02:00:22;;;;;;;42.38;22.25;;;;;;;2.91;91.94;101748.81;5096949;28;20027;-62
2021/04/20 02:02:47;;;;;;;38.33;19.50;;;;;;;2.87;91.36;101752.09;5103987;28;20115;-62
2021/04/20 02:05:14;;;;;;;40.40;20.75;;;;;;;2.84;91.44;101739.78;5102679;28;20031;-62
2021/04/20 02:07:39;;;;;;;40.47;20.75;;;;;;;2.81;91.58;101743.94;5102868;28;20028;-62
2021/04/20 02:10:08;;;;;;;45.38;22.13;;;;;;;2.80;92.70;101740.44;5103625;28;20461;-62
2021/04/20 02:12:38;;;;;;;41.83;21.70;;;;;;;2.82;93.05;101743.13;5102434;28;20028;-62
2021/04/20 02:15:05;;;;;;;35.50;18.40;;;;;;;2.78;92.62;101748.22;5103358;28;20496;-62
2021/04/20 02:17:32;;;;;;;46.47;23.25;;;;;;;2.75;94.76;101741.91;5101471;28;20024;-62
2021/04/20 02:19:59;;;;;;;40.65;21.92;;;;;;;2.72;94.78;101744.38;5104892;28;20126;-62
2021/04/20 02:22:25;;;;;;;45.42;23.13;;;;;;;2.66;94.81;101742.34;5101166;28;20366;-62
2021/04/20 02:24:50;;;;;;;42.75;22.55;;;;;;;2.63;94.73;101742.19;5104354;28;20112;-62
2021/04/20 02:27:16;;;;;;;45.35;22.42;;;;;;;2.60;95.58;101739.44;5102076;28;20084;-62
2021/04/20 02:29:42;;;;;;;45.60;23.13;;;;;;;2.60;94.96;101749.88;5103068;28;20028;-62
2021/04/20 02:32:07;;;;;;;42.75;22.40;;;;;;;2.59;94.71;101745.47;5102732;28;20035;-62
2021/04/20 02:34:32;;;;;;;37.20;19.25;;;;;;;2.54;93.46;101746.97;5102030;28;20024;-62
2021/04/20 02:36:58;;;;;;;37.08;18.38;;;;;;;2.50;93.11;101738.06;5104347;28;20027;-62
2021/04/20 02:39:26;;;;;;;35.33;18.00;;;;;;;2.47;92.72;101744.84;5100728;28;20022;-62
2021/04/20 02:41:53;;;;;;;37.95;20.05;;;;;;;2.44;92.80;101735.13;5104572;28;20047;-62
2021/04/20 02:44:19;;;;;;;37.72;20.55;;;;;;;2.40;92.78;101741.00;5101060;28;20031;-62
2021/04/20 02:46:45;;;;;;;42.25;22.65;;;;;;;2.34;93.71;101748.53;5102833;28;20032;-62
2021/04/20 02:49:14;;;;;;;42.88;23.13;;;;;;;2.26;94.44;101741.19;5102430;28;20032;-62
2021/04/20 02:51:40;;;;;;;60.85;25.33;;;;;;;2.20;94.75;101740.88;5105684;28;20055;-62
2021/04/20 02:54:07;;;;;;;46.47;23.98;;;;;;;2.18;94.66;101742.50;5106717;28;20080;-62
2021/04/20 02:56:33;;;;;;;69.47;26.05;;;;;;;2.19;94.90;101738.19;5105265;28;20032;-62
2021/04/20 02:59:00;;;;;;;64.10;25.90;;;;;;;2.19;95.23;101744.28;5107443;28;20035;-62
2021/04/20 03:01:30;;;;;;;101.40;27.50;;;;;;;2.20;95.74;101739.97;5104116;28;20173;-62
2021/04/20 03:03:56;;;;;;;186.95;31.45;;;;;;;2.25;97.06;101734.19;5100846;28;20027;-62
2021/04/20 03:06:22;;;;;;;201.02;38.60;;;;;;;2.28;98.85;101738.66;5107445;28;20104;-62
2021/04/20 03:08:48;;;;;;;287.85;39.53;;;;;;;2.29;100.00;101734.31;5104881;28;20138;-61
2021/04/20 03:11:26;;;;;;;262.48;38.72;;;;;;;2.19;100.00;101740.81;5106442;28;20405;-61
2021/04/20 03:13:52;;;;;;;238.70;37.00;;;;;;;2.12;100.00;101733.47;5104222;28;20561;-61
2021/04/20 03:16:17;;;;;;;206.23;36.55;;;;;;;2.12;100.00;101728.25;5106982;28;20089;-62
2021/04/20 03:18:43;;;;;;;150.93;34.60;;;;;;;2.06;100.00;101721.88;5105216;28;20024;-61
2021/04/20 03:21:14;;;;;;;209.43;32.83;;;;;;;1.94;100.00;101722.94;5105544;28;20085;-61
2021/04/20 03:23:40;;;;;;;124.72;25.75;;;;;;;1.80;100.00;101722.22;5105969;28;20379;-61
2021/04/20 03:26:30;;;;;;;71.03;23.40;;;;;;;1.76;100.00;101718.53;5104781;28;20528;-62
2021/04/20 03:28:58;;;;;;;95.95;25.38;;;;;;;1.82;100.00;101712.75;5100086;28;20055;-62
2021/04/20 03:31:24;;;;;;;89.72;27.23;;;;;;;1.91;100.00;101716.75;5099759;28;20082;-61
2021/04/20 03:34:22;;;;;;;112.65;28.73;;;;;;;1.98;100.00;101718.00;5106596;28;20027;-62
2021/04/20 03:37:04;;;;;;;82.10;29.40;;;;;;;2.02;100.00;101719.91;5063339;28;20511;-61
2021/04/20 03:39:34;;;;;;;81.25;28.17;;;;;;;1.98;100.00;101715.38;5058272;28;20078;-61
2021/04/20 03:42:03;;;;;;;90.53;29.13;;;;;;;1.95;100.00;101716.91;5064133;28;20043;-61
2021/04/20 03:45:03;;;;;;;84.77;30.13;;;;;;;1.89;100.00;101718.41;5060873;28;20408;-62
2021/04/20 03:47:36;;;;;;;80.22;28.48;;;;;;;1.84;99.77;101716.34;5057476;28;20033;-62
2021/04/20 03:50:06;;;;;;;150.50;30.52;;;;;;;1.85;100.00;101710.28;5063628;28;20026;-62
2021/04/20 03:52:35;;;;;;;117.72;30.30;;;;;;;1.90;100.00;101719.28;5041939;28;20088;-62
2021/04/20 03:55:02;;;;;;;89.68;30.65;;;;;;;1.96;100.00;101718.72;5063933;28;20123;-62
2021/04/20 03:57:32;;;;;;;73.07;29.58;;;;;;;1.97;100.00;101721.41;5043845;28;20387;-62
2021/04/20 04:00:01;;;;;;;85.90;31.02;;;;;;;2.04;100.00;101713.09;5063892;28;20028;-62
2021/04/20 04:02:30;;;;;;;76.90;29.48;;;;;;;2.07;99.29;101723.69;5060326;28;20395;-62
2021/04/20 04:04:57;;;;;;;121.65;31.17;;;;;;;2.05;98.97;101717.50;5063820;28;20033;-62
2021/04/20 04:07:23;;;;;;;124.18;31.80;;;;;;;2.00;98.87;101711.13;5060524;28;20045;-62
2021/04/20 04:09:49;;;;;;;126.95;32.20;;;;;;;1.99;99.53;101716.25;5063090;28;20029;-62
2021/04/20 04:12:17;;;;;;;110.47;31.02;;;;;;;2.03;99.89;101718.22;5061400;28;20036;-62
2021/04/20 04:14:44;;;;;;;180.55;34.47;;;;;;;1.98;100.00;101712.78;5101893;28;20067;-62
2021/04/20 04:17:13;;;;;;;222.90;34.28;;;;;;;1.89;100.00;101715.78;5104762;28;20066;-62
2021/04/20 04:19:43;;;;;;;272.10;35.17;;;;;;;1.81;100.00;101710.97;5104173;28;20088;-62
2021/04/20 04:22:11;;;;;;;238.50;34.80;;;;;;;1.70;100.00;101713.91;5104645;28;20485;-62
2021/04/20 04:24:46;;;;;;;215.60;38.38;;;;;;;1.61;100.00;101718.59;5103936;28;20031;-62
2021/04/20 04:27:14;;;;;;;175.70;37.50;;;;;;;1.53;100.00;101715.56;5104370;28;20458;-62
2021/04/20 04:29:41;;;;;;;154.80;35.88;;;;;;;1.52;100.00;101721.59;5104166;28;20020;-62
2021/04/20 04:32:10;;;;;;;110.03;34.13;;;;;;;1.53;100.00;101717.25;5105112;28;20030;-62
2021/04/20 04:34:36;;;;;;;100.25;35.95;;;;;;;1.55;100.00;101718.25;5103598;28;20091;-62
2021/04/20 04:37:02;;;;;;;101.60;33.40;;;;;;;1.55;100.00;101715.66;5105627;28;20169;-62
2021/04/20 04:39:27;;;;;;;109.28;34.97;;;;;;;1.54;100.00;101713.84;5102528;28;20020;-62
2021/04/20 04:41:55;;;;;;;120.03;36.08;;;;;;;1.50;100.00;101722.31;5105847;28;20466;-62
2021/04/20 04:44:21;;;;;;;89.78;34.42;;;;;;;1.43;100.00;101720.19;5101017;28;20047;-62
2021/04/20 04:46:47;;;;;;;106.80;33.22;;;;;;;1.42;100.00;101711.47;5104592;28;20032;-62
2021/04/20 04:49:14;;;;;;;117.25;35.00;;;;;;;1.47;100.00;101712.63;5103774;28;20115;-62
2021/04/20 04:51:40;;;;;;;103.55;34.30;;;;;;;1.50;100.00;101711.88;5103443;28;20044;-62
2021/04/20 04:54:12;;;;;;;87.35;32.60;;;;;;;1.45;100.00;101710.75;5104615;28;20022;-62
2021/04/20 04:56:41;;;;;;;133.57;32.65;;;;;;;1.38;100.00;101712.09;5103507;28;20020;-62
2021/04/20 04:59:09;;;;;;;124.85;32.85;;;;;;;1.37;100.00;101713.81;5102976;28;20060;-62
2021/04/20 05:01:41;;;;;;;115.18;34.30;;;;;;;1.41;100.00;101716.59;5102715;28;20026;-62
2021/04/20 05:04:08;;;;;;;124.28;33.63;;;;;;;1.42;100.00;101721.00;5104460;28;20066;-62
2021/04/20 05:06:39;;;;;;;93.25;32.55;;;;;;;1.43;100.00;101720.19;5102954;28;20424;-62
2021/04/20 05:09:16;;;;;;;122.18;32.90;;;;;;;1.45;100.00;101723.78;5104646;28;20027;-62
2021/04/20 05:11:46;;;;;;;103.47;32.97;;;;;;;1.48;100.00;101719.63;5103407;28;20028;-62
2021/04/20 05:14:13;;;;;;;117.32;34.60;;;;;;;1.52;100.00;101731.13;5102974;28;20020;-62
2021/04/20 05:16:47;;;;;;;119.80;36.85;;;;;;;1.61;100.00;101726.41;5103350;28;20028;-62
2021/04/20 05:19:15;;;;;;;89.15;35.33;;;;;;;1.75;100.00;101729.78;5103391;28;20107;-62
2021/04/20 05:21:41;;;;;;;106.15;34.35;;;;;;;1.84;100.00;101730.28;5103115;28;20020;-62
2021/04/20 05:24:06;;;;;;;92.57;32.42;;;;;;;1.89;100.00;101727.91;5104001;28;20416;-62
2021/04/20 05:26:33;;;;;;;102.57;35.03;;;;;;;1.95;100.00;101730.84;5102082;28;20031;-62
2021/04/20 05:28:59;;;;;;;97.18;33.67;;;;;;;2.05;100.00;101729.63;5098524;28;20024;-63
2021/04/20 05:31:26;;;;;;;111.80;35.25;;;;;;;2.14;100.00;101726.59;5098995;28;20084;-64
2021/04/20 05:34:02;;;;;;;98.35;35.13;;;;;;;2.29;100.00;101730.03;5098404;28;20440;-64
2021/04/20 05:36:28;;;;;;;132.13;36.08;;;;;;;2.41;100.00;101735.00;5092687;28;20020;-63
2021/04/20 05:38:56;;;;;;;89.70;33.80;;;;;;;2.51;100.00;101737.25;5101055;28;20023;-64
2021/04/20 05:41:29;;;;;;;120.45;34.78;;;;;;;2.59;100.00;101729.81;5098267;28;20099;-64
2021/04/20 05:43:56;;;;;;;112.82;37.20;;;;;;;2.67;100.00;101730.22;5098182;28;20028;-63
2021/04/20 05:46:22;;;;;;;96.32;33.95;;;;;;;2.79;100.00;101733.44;5100810;28;20036;-63
2021/04/20 05:48:50;;;;;;;137.77;35.38;;;;;;;2.93;98.81;101721.06;5099916;28;20040;-64
2021/04/20 05:51:16;;;;;;;110.97;34.20;;;;;;;3.01;99.13;101721.44;5100154;28;20015;-62
2021/04/20 05:53:42;;;;;;;120.57;35.22;;;;;;;3.07;98.92;101727.88;5100440;28;20118;-62
2021/04/20 05:56:08;;;;;;;112.03;34.60;;;;;;;3.20;99.49;101729.34;5101411;28;20024;-63
2021/04/20 05:58:33;;;;;;;121.15;34.67;;;;;;;3.30;99.67;101728.06;5103238;28;20031;-62
2021/04/20 06:01:03;;;;;;;149.63;35.40;;;;;;;3.37;100.00;101722.31;5103896;28;20016;-63
2021/04/20 06:03:31;;;;;;;136.70;33.38;;;;;;;3.43;99.49;101725.22;5101762;28;20035;-63
2021/04/20 06:05:57;;;;;;;109.43;33.38;;;;;;;3.46;99.46;101729.69;5101472;28;20032;-63
2021/04/20 06:08:24;;;;;;;124.13;33.53;;;;;;;3.49;99.57;101730.75;5100172;28;20036;-63
2021/04/20 06:10:51;;;;;;;84.53;33.53;;;;;;;3.65;99.97;101726.22;5098794;28;20020;-62
2021/04/20 06:13:16;;;;;;;105.13;32.30;;;;;;;3.81;99.70;101731.34;5096914;28;20032;-63
2021/04/20 06:15:42;;;;;;;150.38;35.65;;;;;;;3.86;99.48;101736.81;5097533;28;20039;-63
2021/04/20 06:18:08;;;;;;;155.63;41.22;;;;;;;3.85;100.00;101737.63;5097859;28;20106;-63
2021/04/20 06:20:33;;;;;;;149.20;39.15;;;;;;;3.92;100.00;101741.44;5098556;28;20068;-63
2021/04/20 06:23:00;;;;;;;146.88;40.15;;;;;;;4.01;100.00;101741.84;5101056;28;20027;-63
2021/04/20 06:25:25;;;;;;;123.68;38.53;;;;;;;4.12;100.00;101739.69;5103824;28;20032;-61
2021/04/20 06:27:52;;;;;;;152.20;40.80;;;;;;;4.24;100.00;101749.81;5099934;28;20055;-64
2021/04/20 06:30:19;;;;;;;108.20;35.40;;;;;;;4.35;99.81;101749.50;5104145;28;20023;-63
2021/04/20 06:32:47;;;;;;;89.72;33.75;;;;;;;4.52;99.89;101749.31;5101477;28;20020;-62
2021/04/20 06:35:15;;;;;;;91.88;35.13;;;;;;;4.69;98.85;101750.94;5100284;28;20032;-62
2021/04/20 06:37:43;;;;;;;93.80;33.13;;;;;;;4.80;98.54;101748.75;5102609;28;20035;-63
2021/04/20 06:40:15;;;;;;;86.90;33.63;;;;;;;4.88;98.97;101747.38;5098461;28;20107;-62
2021/04/20 06:42:46;;;;;;;103.00;31.92;;;;;;;4.98;96.96;101740.81;5098585;28;20031;-62
2021/04/20 06:45:17;;;;;;;78.72;31.20;;;;;;;5.12;96.09;101743.09;5098876;28;20016;-62
2021/04/20 06:47:51;;;;;;;94.80;31.58;;;;;;;5.19;96.25;101742.50;5100725;28;20028;-63
2021/04/20 06:50:18;;;;;;;82.55;31.45;;;;;;;5.28;96.17;101747.22;5100673;28;20030;-63
2021/04/20 06:52:55;;;;;;;66.53;32.97;;;;;;;5.37;95.98;101737.09;5099183;28;20044;-63
2021/04/20 06:55:53;;;;;;;71.85;36.00;;;;;;;5.46;96.01;101737.47;5103032;28;20039;-62
2021/04/20 06:58:39;;;;;;;59.35;36.28;;;;;;;5.62;96.91;101743.31;5097300;28;20042;-63
2021/04/20 07:01:09;;;;;;;64.18;37.13;;;;;;;5.85;98.67;101747.72;5098333;28;20020;-63
2021/04/20 07:04:02;;;;;;;62.20;37.97;;;;;;;6.06;95.64;101744.16;5097982;28;20377;-63
2021/04/20 07:06:33;;;;;;;64.72;38.67;;;;;;;6.17;95.28;101750.69;5097238;28;20146;-62
2021/04/20 07:09:13;;;;;;;67.82;39.45;;;;;;;6.24;96.24;101747.44;5099682;28;20488;-63
2021/04/20 07:11:45;;;;;;;66.32;39.05;;;;;;;6.33;96.73;101753.88;5098519;28;20099;-63
2021/04/20 07:14:15;;;;;;;69.05;39.58;;;;;;;6.45;96.59;101752.59;5099051;28;20553;-64
2021/04/20 07:16:51;;;;;;;69.85;40.75;;;;;;;6.56;96.31;101755.59;5104990;28;20023;-63
2021/04/20 07:19:45;;;;;;;68.40;40.63;;;;;;;6.74;95.69;101751.81;5104385;28;20024;-63
2021/04/20 07:22:42;;;;;;;68.13;40.25;;;;;;;6.87;93.06;101755.75;5053573;28;20388;-63
2021/04/20 07:25:11;;;;;;;66.45;40.33;;;;;;;6.89;93.61;101749.72;5051652;28;20025;-62
2021/04/20 07:27:39;;;;;;;70.00;41.35;;;;;;;6.96;93.79;101751.72;5051005;28;20044;-63
2021/04/20 07:30:26;;;;;;;74.75;43.88;;;;;;;7.05;93.65;101747.59;5053209;28;20033;-63
2021/04/20 07:33:36;;;;;;;73.38;43.15;;;;;;;7.17;92.97;101745.38;5052647;28;20037;-63
2021/04/20 07:36:28;;;;;;;73.57;42.40;;;;;;;7.30;92.82;101744.91;5040153;28;20037;-63
2021/04/20 07:39:09;;;;;;;77.55;45.72;;;;;;;7.42;94.04;101741.78;5052306;28;20048;-63
2021/04/20 07:42:06;;;;;;;81.22;45.60;;;;;;;7.47;94.58;101744.56;5051973;28;20049;-63
2021/04/20 07:44:32;;;;;;;79.60;45.15;;;;;;;7.62;93.34;101749.41;5052180;28;20064;-63
2021/04/20 07:47:01;;;;;;;80.13;46.35;;;;;;;7.75;93.65;101745.44;5055898;28;20102;-63
2021/04/20 07:49:26;;;;;;;89.82;48.80;;;;;;;8.01;95.59;101756.75;5061858;28;20029;-63
2021/04/20 07:52:06;;;;;;;89.00;47.55;;;;;;;8.21;93.76;101757.28;5062814;28;20530;-63
2021/04/20 07:54:57;;;;;;;94.82;48.55;;;;;;;8.40;92.89;101755.19;5063230;28;20497;-63
2021/04/20 07:57:27;;;;;;;93.50;51.50;;;;;;;8.59;93.58;101760.16;5061427;28;20098;-63
2021/04/20 07:59:52;;;;;;;87.80;49.67;;;;;;;8.73;91.38;101756.13;5096250;28;20071;-63
2021/04/20 08:02:47;;;;;;;96.93;51.60;;;;;;;8.94;89.53;101757.56;5103574;28;20422;-63
2021/04/20 08:05:28;;;;;;;95.75;52.28;;;;;;;9.37;86.71;101744.53;5056615;28;20048;-63
2021/04/20 08:08:19;;;;;;;98.13;51.38;;;;;;;10.04;81.73;101749.53;5061385;28;20033;-63
2021/04/20 08:10:56;;;;;;;91.93;50.17;;;;;;;10.76;79.62;101748.31;5056755;28;20128;-63
2021/04/20 08:13:45;;;;;;;85.72;49.15;;;;;;;11.33;78.18;101749.25;5061358;28;20029;-63
2021/04/20 08:16:28;;;;;;;82.78;47.10;;;;;;;11.76;74.62;101745.47;5056292;28;20398;-63
2021/04/20 08:19:11;;;;;;;;;;;;;;;12.21;78.26;101742.53;5061530;28;20483;-63
2021/04/20 08:21:41;;;;;;;83.28;48.40;;;;;;;12.76;69.29;101741.38;5060437;28;19913;-63
2021/04/20 08:24:14;;;;;;;83.57;49.50;;;;;;;13.18;69.00;101734.66;5046021;28;20036;-63
2021/04/20 08:26:45;;;;;;;81.80;48.85;;;;;;;13.58;66.31;101737.59;5060092;28;20040;-63
2021/04/20 08:29:16;;;;;;;77.15;47.38;;;;;;;13.80;65.70;101735.06;5056157;28;20041;-63
2021/04/20 08:31:49;;;;;;;78.25;46.70;;;;;;;13.93;65.65;101736.88;5045851;28;20036;-65
2021/04/20 08:34:30;;;;;;;73.57;46.40;;;;;;;14.51;64.96;101723.81;5051434;28;20059;-65
2021/04/20 08:37:02;;;;;;;73.80;45.80;;;;;;;15.06;61.74;101733.66;5050316;28;20029;-65
2021/04/20 08:39:57;;;;;;;72.07;44.88;;;;;;;15.75;60.71;101735.31;5050270;28;20059;-65
2021/04/20 08:42:57;;;;;;;68.13;42.50;;;;;;;16.25;58.82;101730.69;5079108;28;20075;-64
2021/04/20 08:45:41;;;;;;;61.05;40.10;;;;;;;16.52;54.72;101725.19;5102291;28;20059;-65
2021/04/20 08:48:35;;;;;;;59.33;39.50;;;;;;;16.87;56.54;101732.09;5099284;28;20028;-64
2021/04/20 08:51:43;;;;;;;59.88;38.33;;;;;;;17.10;56.42;101728.38;5097358;28;20019;-64
2021/04/20 08:54:25;;;;;;;59.20;37.63;;;;;;;17.73;54.42;101734.84;5099482;28;20039;-64
2021/04/20 08:57:02;;;;;;;60.00;39.05;;;;;;;18.33;52.20;101728.78;5100865;28;20030;-64
2021/04/20 08:59:40;;;;;;;57.50;38.33;;;;;;;18.68;48.37;101722.00;5103490;28;20024;-65
2021/04/20 09:02:22;;;;;;;57.30;37.30;;;;;;;19.02;45.92;101724.19;5101613;28;20053;-65
2021/04/20 09:05:22;;;;;;;57.20;37.35;;;;;;;19.21;47.58;101719.41;5093452;28;20028;-64
2021/04/20 09:07:50;;;;;;;58.75;38.28;;;;;;;19.13;43.81;101727.59;5092164;28;20028;-65
2021/04/20 09:10:18;;;;;;;58.60;37.38;;;;;;;19.13;43.11;101727.59;5091403;28;20473;-65
2021/04/20 09:12:50;;;;;;;58.10;37.95;;;;;;;19.36;44.47;101733.44;5094217;28;20052;-64
2021/04/20 09:15:17;;;;;;;57.67;37.90;;;;;;;19.67;43.22;101725.69;5092168;28;20055;-64
2021/04/20 09:17:49;;;;;;;56.38;37.05;;;;;;;19.55;44.48;101725.94;5091741;28;20070;-64
2021/04/20 09:20:53;;;;;;;57.17;39.15;;;;;;;18.83;48.74;101723.59;5090382;28;20031;-63
2021/04/20 09:23:32;;;;;;;56.45;38.40;;;;;;;18.11;48.18;101736.22;5091051;28;20353;-64
2021/04/20 09:26:12;;;;;;;55.55;37.33;;;;;;;18.46;47.99;101722.38;5091169;28;20510;-65
2021/04/20 09:28:41;;;;;;;58.38;37.47;;;;;;;19.14;44.31;101726.66;5093770;28;20463;-64
2021/04/20 09:31:15;;;;;;;58.65;37.20;;;;;;;20.07;43.87;101729.41;5098243;28;20020;-65
2021/04/20 09:33:47;;;;;;;56.20;36.40;;;;;;;20.67;41.05;101725.38;5094559;28;20019;-64
2021/04/20 09:36:13;;;;;;;54.08;35.50;;;;;;;21.31;40.61;101722.00;5093896;28;20023;-63
2021/04/20 09:38:45;;;;;;;51.53;34.13;;;;;;;21.27;39.29;101728.38;5093503;28;20474;-64
2021/04/20 09:41:11;;;;;;;50.90;32.75;;;;;;;21.19;38.32;101724.06;5091288;28;20024;-63
2021/04/20 09:43:51;;;;;;;48.67;31.35;;;;;;;21.27;38.22;101723.88;5093382;28;20032;-64
2021/04/20 09:46:38;;;;;;;51.15;32.60;;;;;;;21.15;38.01;101721.50;5095422;28;20526;-64
2021/04/20 09:49:58;;;;;;;50.95;32.80;;;;;;;21.46;38.85;101721.56;5090728;28;20492;-64
2021/04/20 09:52:28;;;;;;;51.33;33.90;;;;;;;21.99;36.82;101728.19;5049195;28;20040;-64
2021/04/20 09:55:04;;;;;;;50.33;32.47;;;;;;;22.76;36.46;101723.13;5050668;28;20120;-63
2021/04/20 09:57:33;;;;;;;52.45;33.03;;;;;;;23.66;34.25;101719.16;5056053;28;20037;-64
2021/04/20 10:00:09;;;;;;;49.10;31.23;;;;;;;24.40;33.90;101723.56;5055311;28;20048;-63
2021/04/20 10:02:58;;;;;;;45.10;28.23;;;;;;;25.06;34.09;101718.16;5052525;28;20485;-64
2021/04/20 10:06:01;;;;;;;44.13;27.77;;;;;;;24.82;32.89;101720.06;5054752;28;20119;-63
2021/04/20 10:09:04;;;;;;;44.63;27.95;;;;;;;25.22;31.09;101712.06;5051875;28;20084;-64
2021/04/20 10:12:01;;;;;;;39.38;24.88;;;;;;;25.47;31.13;101724.56;5058418;28;20123;-64
2021/04/20 10:15:04;;;;;;;37.95;24.23;;;;;;;25.39;30.66;101712.25;4989410;28;20053;-64
2021/04/20 10:17:36;;;;;;;;;;;;;;;25.87;30.92;101718.22;4990628;28;20042;-64
2021/04/20 10:20:27;;;;;;;36.20;21.95;;;;;;;26.82;29.06;101719.19;4996252;28;19996;-64
2021/04/20 10:23:09;;;;;;;35.30;21.48;;;;;;;27.40;27.00;101718.03;4991020;28;20493;-64
2021/04/20 10:25:42;;;;;;;35.20;22.10;;;;;;;27.78;24.14;101715.97;4989055;28;20109;-64
2021/04/20 10:28:31;;;;;;;34.67;22.13;;;;;;;27.99;25.09;101718.50;4991112;28;20422;-63
2021/04/20 10:31:01;;;;;;;40.92;26.70;;;;;;;28.12;24.85;101714.16;5011044;28;20037;-65
2021/04/20 10:33:28;;;;;;;35.58;22.50;;;;;;;28.57;22.92;101699.84;5008929;28;20022;-64
2021/04/20 10:35:56;;;;;;;37.05;23.42;;;;;;;28.77;23.12;101704.13;5011010;28;20068;-64
2021/04/20 10:38:28;;;;;;;35.83;23.33;;;;;;;28.37;23.69;101699.16;5013196;28;20045;-64
2021/04/20 10:40:54;;;;;;;37.35;23.60;;;;;;;28.42;22.44;101697.03;5012230;28;20030;-64
2021/04/20 10:43:24;;;;;;;37.75;25.13;;;;;;;27.89;23.41;101692.75;5011320;28;20040;-65
2021/04/20 10:45:52;;;;;;;35.55;22.98;;;;;;;27.53;22.70;101688.41;5013725;28;20109;-63
2021/04/20 10:48:23;;;;;;;36.75;23.67;;;;;;;28.36;22.89;101683.81;5012523;28;20080;-63
2021/04/20 10:50:51;;;;;;;38.38;26.42;;;;;;;29.23;21.83;101690.53;5032103;28;20093;-64
2021/04/20 10:53:24;;;;;;;37.95;25.83;;;;;;;29.25;23.34;101679.53;5094572;28;20515;-65
2021/04/20 10:56:02;;;;;;;38.65;24.88;;;;;;;28.67;22.37;101679.31;5091800;28;20401;-65
2021/04/20 10:58:29;;;;;;;37.25;25.25;;;;;;;28.39;22.44;101680.91;5091080;28;20020;-64
2021/04/20 11:00:56;;;;;;;37.60;25.75;;;;;;;28.72;21.35;101674.50;5103187;28;20382;-65
2021/04/20 11:03:24;;;;;;;35.88;24.65;;;;;;;27.95;21.84;101684.28;5101788;28;20019;-64
2021/04/20 11:05:49;;;;;;;36.13;24.33;;;;;;;27.66;22.25;101667.78;5083577;28;20089;-64
2021/04/20 11:08:35;;;;;;;36.10;23.85;;;;;;;28.78;22.50;101668.69;5102693;28;20023;-64
2021/04/20 11:11:02;;;;;;;35.35;22.20;;;;;;;28.46;21.96;101666.00;5104945;28;20392;-64
2021/04/20 11:13:37;;;;;;;32.70;21.67;;;;;;;28.43;22.63;101668.03;5105094;28;20028;-64
2021/04/20 11:16:09;;;;;;;34.65;22.10;;;;;;;28.79;21.74;101667.72;5100068;28;20497;-65
2021/04/20 11:18:39;;;;;;;32.22;20.27;;;;;;;29.78;21.25;101669.84;5100134;28;20024;-65
2021/04/20 11:21:10;;;;;;;34.33;21.90;;;;;;;30.20;19.93;101659.88;5098895;28;20028;-64
2021/04/20 11:23:49;;;;;;;33.28;21.70;;;;;;;31.15;19.63;101665.38;5100319;28;20053;-65
2021/04/20 11:26:17;;;;;;;31.65;20.33;;;;;;;31.65;16.28;101660.03;5102519;28;20038;-64
2021/04/20 11:28:42;;;;;;;29.98;18.85;;;;;;;32.35;15.82;101658.56;5106483;28;20065;-64
2021/04/20 11:31:19;;;;;;;29.63;18.50;;;;;;;32.87;16.45;101652.84;5103873;28;20416;-65
2021/04/20 11:33:48;;;;;;;29.80;18.25;;;;;;;32.85;15.83;101647.47;5105828;28;20030;-65